createdAt,value
2023-01-29T00:01:51.966Z,5.60
2023-01-29T00:04:18.825Z,5.70
2023-01-29T00:06:45.469Z,5.70
2023-01-29T00:09:13.446Z,5.70
2023-01-29T00:11:40.337Z,5.60
2023-01-29T00:14:07.046Z,5.60
2023-01-29T00:16:33.706Z,5.50
2023-01-29T00:19:01.947Z,5.50
2023-01-29T00:21:31.006Z,5.50
2023-01-29T00:23:58.655Z,5.50
2023-01-29T00:26:25.975Z,5.40
2023-01-29T00:28:52.584Z,5.50
2023-01-29T00:31:24.342Z,5.50
2023-01-29T00:33:51.770Z,5.40
2023-01-29T00:36:20.316Z,5.40
2023-01-29T00:38:54.557Z,5.40
2023-01-29T00:41:40.957Z,5.40
2023-01-29T00:44:26.547Z,5.50
2023-01-29T00:46:53.315Z,5.50
2023-01-29T00:49:20.395Z,5.50
2023-01-29T00:52:09.940Z,5.60
2023-01-29T00:54:37.175Z,5.60
2023-01-29T00:57:04.540Z,5.60
2023-01-29T00:59:31.330Z,5.70
2023-01-29T01:02:16.980Z,5.60
2023-01-29T01:04:43.675Z,5.60
2023-01-29T01:09:55.875Z,5.70
2023-01-29T01:12:22.967Z,5.70
2023-01-29T01:14:50.063Z,5.80
2023-01-29T01:17:17.218Z,5.70
2023-01-29T01:19:44.208Z,5.70
2023-01-29T01:22:11.164Z,5.70
2023-01-29T01:24:38.353Z,5.70
2023-01-29T01:27:05.255Z,5.70
2023-01-29T01:29:32.691Z,5.70
2023-01-29T01:31:59.603Z,5.80
2023-01-29T01:34:29.586Z,5.80
2023-01-29T01:36:56.606Z,5.90
2023-01-29T01:39:24.589Z,5.80
2023-01-29T01:41:53.597Z,5.80
2023-01-29T01:44:51.503Z,5.80
2023-01-29T01:47:31.490Z,5.80
2023-01-29T01:50:02.880Z,5.80
2023-01-29T01:52:31.684Z,5.80
2023-01-29T01:54:59.574Z,5.80
2023-01-29T01:57:27.832Z,5.80
2023-01-29T02:00:03.868Z,5.80
2023-01-29T02:02:49.203Z,5.90
2023-01-29T02:05:34.576Z,5.90
2023-01-29T02:08:19.769Z,5.90
2023-01-29T02:10:48.818Z,5.90
2023-01-29T02:13:17.769Z,5.90
2023-01-29T02:15:48.960Z,5.80
2023-01-29T02:18:21.403Z,5.80
2023-01-29T02:21:03.474Z,5.80
2023-01-29T02:23:50.317Z,5.80
2023-01-29T02:26:33.140Z,5.90
2023-01-29T02:29:25.107Z,5.80
2023-01-29T02:32:09.361Z,5.80
2023-01-29T02:35:05.279Z,5.80
2023-01-29T02:37:42.434Z,5.80
2023-01-29T02:40:30.452Z,5.80
2023-01-29T02:43:24.327Z,5.80
2023-01-29T02:46:16.879Z,5.80
2023-01-29T02:48:54.501Z,5.80
2023-01-29T02:52:03.437Z,5.80
2023-01-29T02:55:02.979Z,5.80
2023-01-29T02:57:35.107Z,5.80
2023-01-29T03:00:08.740Z,5.90
2023-01-29T03:02:38.372Z,5.80
2023-01-29T03:05:12.651Z,5.80
2023-01-29T03:07:46.500Z,5.90
2023-01-29T03:10:21.685Z,5.80
2023-01-29T03:12:59.604Z,5.90
2023-01-29T03:15:38.592Z,5.80
2023-01-29T03:18:09.631Z,5.80
2023-01-29T03:20:47.940Z,5.80
2023-01-29T03:23:24.023Z,5.70
2023-01-29T03:26:13.390Z,5.70
2023-01-29T03:29:01.862Z,5.60
2023-01-29T03:31:48.229Z,5.70
2023-01-29T03:34:28.419Z,5.70
2023-01-29T03:36:59.996Z,5.70
2023-01-29T03:39:29.593Z,5.70
2023-01-29T03:42:04.933Z,5.70
2023-01-29T03:44:53.689Z,5.70
2023-01-29T03:47:29.558Z,5.70
2023-01-29T03:50:08.105Z,5.70
2023-01-29T03:52:48.888Z,5.70
2023-01-29T03:55:18.508Z,5.70
2023-01-29T03:57:51.268Z,5.70
2023-01-29T04:00:23.293Z,5.70
2023-01-29T04:02:56.725Z,5.60
2023-01-29T04:05:28.012Z,5.60
2023-01-29T04:08:01.484Z,5.50
2023-01-29T04:10:29.939Z,5.60
2023-01-29T04:13:01.545Z,5.60
2023-01-29T04:15:31.919Z,5.60
2023-01-29T04:17:58.766Z,5.60
2023-01-29T04:20:25.682Z,5.50
2023-01-29T04:22:53.035Z,5.60
2023-01-29T04:25:28.834Z,5.60
2023-01-29T04:28:08.600Z,5.60
2023-01-29T04:30:55.714Z,5.50
2023-01-29T04:33:35.886Z,5.50
2023-01-29T04:36:17.496Z,5.50
2023-01-29T04:38:50.145Z,5.50
2023-01-29T04:41:22.275Z,5.40
2023-01-29T04:44:11.078Z,5.40
2023-01-29T04:46:49.583Z,5.40
2023-01-29T04:49:34.467Z,5.40
2023-01-29T04:52:20.403Z,5.40
2023-01-29T04:55:03.139Z,5.50
2023-01-29T04:58:03.408Z,5.40
2023-01-29T05:00:49.250Z,5.50
2023-01-29T05:03:16.849Z,5.50
2023-01-29T05:05:47.948Z,5.50
2023-01-29T05:08:22.836Z,5.50
2023-01-29T05:10:51.929Z,5.50
2023-01-29T05:13:20.932Z,5.50
2023-01-29T05:15:52.916Z,5.50
2023-01-29T05:18:19.758Z,5.60
2023-01-29T05:20:47.852Z,5.50
2023-01-29T05:23:19.395Z,5.50
2023-01-29T05:25:47.211Z,5.50
2023-01-29T05:28:16.323Z,5.50
2023-01-29T05:30:45.714Z,5.40
2023-01-29T05:33:21.419Z,5.40
2023-01-29T05:35:48.663Z,5.40
2023-01-29T05:38:16.327Z,5.40
2023-01-29T05:40:43.399Z,5.50
2023-01-29T05:43:22.235Z,5.50
2023-01-29T05:46:00.383Z,5.40
2023-01-29T05:48:28.954Z,5.50
2023-01-29T05:51:01.093Z,5.40
2023-01-29T05:53:28.989Z,5.40
2023-01-29T05:55:57.227Z,5.50
2023-01-29T05:58:23.960Z,5.40
2023-01-29T06:00:50.638Z,5.40
2023-01-29T06:03:17.292Z,5.40
2023-01-29T06:05:44.162Z,5.30
2023-01-29T06:08:10.832Z,5.30
2023-01-29T06:10:37.507Z,5.40
2023-01-29T06:13:04.227Z,5.40
2023-01-29T06:15:30.907Z,5.40
2023-01-29T06:17:57.849Z,5.40
2023-01-29T06:20:25.178Z,5.40
2023-01-29T06:22:51.860Z,5.50
2023-01-29T06:25:18.539Z,5.50
2023-01-29T06:27:45.278Z,5.50
2023-01-29T06:30:12.432Z,5.50
2023-01-29T06:32:39.025Z,5.40
2023-01-29T06:35:06.144Z,5.40
2023-01-29T06:37:32.748Z,5.40
2023-01-29T06:39:59.393Z,5.30
2023-01-29T06:42:28.022Z,5.20
2023-01-29T06:44:57.912Z,5.30
2023-01-29T06:47:25.081Z,5.30
2023-01-29T06:49:52.180Z,5.30
2023-01-29T06:52:18.849Z,5.20
2023-01-29T06:54:45.563Z,5.20
2023-01-29T06:57:12.223Z,5.10
2023-01-29T06:59:38.823Z,5.10
2023-01-29T07:02:05.595Z,5.10
2023-01-29T07:04:32.387Z,5.20
2023-01-29T07:07:01.881Z,5.20
2023-01-29T07:09:28.635Z,5.20
2023-01-29T07:11:55.307Z,5.20
2023-01-29T07:14:21.899Z,5.30
2023-01-29T07:16:48.633Z,5.30
2023-01-29T07:19:15.425Z,5.30
2023-01-29T07:21:42.020Z,5.30
2023-01-29T07:24:08.963Z,5.20
2023-01-29T07:26:35.692Z,5.20
2023-01-29T07:29:04.384Z,5.30
2023-01-29T07:31:31.270Z,5.30
2023-01-29T07:33:58.107Z,5.40
2023-01-29T07:36:24.906Z,5.30
2023-01-29T07:38:51.924Z,5.30
2023-01-29T07:41:18.778Z,5.20
2023-01-29T07:43:45.458Z,5.20
2023-01-29T07:46:12.195Z,5.20
2023-01-29T07:48:38.831Z,5.20
2023-01-29T07:51:05.878Z,5.10
2023-01-29T07:53:32.774Z,5.10
2023-01-29T07:55:59.458Z,5.20
2023-01-29T07:58:26.153Z,5.10
2023-01-29T08:00:52.856Z,5.10
2023-01-29T08:03:20.718Z,5.10
2023-01-29T08:05:47.684Z,5.10
2023-01-29T08:08:14.668Z,5.10
2023-01-29T08:10:41.865Z,5.10
2023-01-29T08:13:09.560Z,5.20
2023-01-29T08:15:38.775Z,5.10
2023-01-29T08:18:06.722Z,5.20
2023-01-29T08:20:33.518Z,5.20
2023-01-29T08:23:01.891Z,5.30
2023-01-29T08:25:29.731Z,5.30
2023-01-29T08:27:57.834Z,5.30
2023-01-29T08:30:26.004Z,5.20
2023-01-29T08:32:52.823Z,5.20
2023-01-29T08:35:20.036Z,5.30
2023-01-29T08:37:59.826Z,5.20
2023-01-29T08:40:31.764Z,5.30
2023-01-29T08:43:04.136Z,5.30
2023-01-29T08:45:35.073Z,5.30
2023-01-29T08:48:02.505Z,5.40
2023-01-29T08:50:30.721Z,5.40
2023-01-29T08:52:59.025Z,5.40
2023-01-29T08:55:26.505Z,5.40
2023-01-29T08:57:53.215Z,5.40
2023-01-29T09:00:20.311Z,5.40
2023-01-29T09:02:47.044Z,5.40
2023-01-29T09:05:13.816Z,5.40
2023-01-29T09:07:40.488Z,5.40
2023-01-29T09:10:08.064Z,5.40
2023-01-29T09:12:34.689Z,5.40
2023-01-29T09:15:01.304Z,5.50
2023-01-29T09:17:27.984Z,5.40
2023-01-29T09:19:54.675Z,5.40
2023-01-29T09:22:21.284Z,5.40
2023-01-29T09:24:47.947Z,5.30
2023-01-29T09:27:14.609Z,5.40
2023-01-29T09:29:41.280Z,5.50
2023-01-29T09:32:07.961Z,5.50
2023-01-29T09:34:35.301Z,5.40
2023-01-29T09:37:01.975Z,5.40
2023-01-29T09:39:28.647Z,5.40
2023-01-29T09:42:16.671Z,5.50
2023-01-29T09:45:06.776Z,5.60
2023-01-29T09:47:36.428Z,5.60
2023-01-29T09:50:18.424Z,5.60
2023-01-29T09:53:10.196Z,5.50
2023-01-29T09:55:46.248Z,5.60
2023-01-29T09:58:24.827Z,5.60
2023-01-29T10:01:07.090Z,5.70
2023-01-29T10:03:59.704Z,5.70
2023-01-29T10:06:35.639Z,5.70
2023-01-29T10:09:32.140Z,5.70
2023-01-29T10:12:11.724Z,5.70
2023-01-29T10:14:58.041Z,5.70
2023-01-29T10:17:56.715Z,5.70
2023-01-29T10:21:08.198Z,5.70
2023-01-29T10:23:38.584Z,5.60
2023-01-29T10:26:05.203Z,5.70
2023-01-29T10:28:38.095Z,5.80
2023-01-29T10:31:09.578Z,5.80
2023-01-29T10:33:49.658Z,5.80
2023-01-29T10:36:38.487Z,5.90
2023-01-29T10:39:05.155Z,5.80
2023-01-29T10:41:45.694Z,5.80
2023-01-29T10:44:35.825Z,5.70
2023-01-29T10:47:20.872Z,5.70
2023-01-29T10:50:19.522Z,5.80
2023-01-29T10:53:10.787Z,5.80
2023-01-29T10:55:53.354Z,5.90
2023-01-29T10:58:28.137Z,5.90
2023-01-29T11:00:54.789Z,6.00
2023-01-29T11:03:28.694Z,5.90
2023-01-29T11:06:13.861Z,5.80
2023-01-29T11:08:55.107Z,5.80
2023-01-29T11:11:25.899Z,5.90
2023-01-29T11:14:15.824Z,5.80
2023-01-29T11:16:45.669Z,5.90
2023-01-29T11:19:12.881Z,5.90
2023-01-29T11:21:59.712Z,5.90
2023-01-29T11:24:26.897Z,6.00
2023-01-29T11:26:57.514Z,5.90
2023-01-29T11:29:33.835Z,6.00
2023-01-29T11:32:03.919Z,6.00
2023-01-29T11:34:31.030Z,5.90
2023-01-29T11:37:00.346Z,5.90
2023-01-29T11:39:29.180Z,5.90
2023-01-29T11:41:58.863Z,6.00
2023-01-29T11:44:41.632Z,6.00
2023-01-29T11:47:29.621Z,6.00
2023-01-29T11:50:01.434Z,5.90
2023-01-29T11:52:37.523Z,6.00
2023-01-29T11:55:26.387Z,5.90
2023-01-29T11:58:01.594Z,5.90
2023-01-29T12:00:32.410Z,6.00
2023-01-29T12:03:24.610Z,5.90
2023-01-29T12:05:58.324Z,6.00
2023-01-29T12:08:26.019Z,6.00
2023-01-29T12:11:08.271Z,5.90
2023-01-29T12:13:36.083Z,6.00
2023-01-29T12:16:20.162Z,6.00
2023-01-29T12:18:55.045Z,6.10
2023-01-29T12:21:37.294Z,6.10
2023-01-29T12:24:06.878Z,6.00
2023-01-29T12:26:38.344Z,6.10
2023-01-29T12:29:19.298Z,6.00
2023-01-29T12:31:57.489Z,6.00
2023-01-29T12:34:33.186Z,6.10
2023-01-29T12:37:10.762Z,6.10
2023-01-29T12:39:37.566Z,6.20
2023-01-29T12:42:20.220Z,6.20
2023-01-29T12:44:51.912Z,6.20
2023-01-29T12:47:27.597Z,6.10
2023-01-29T12:49:57.792Z,6.10
2023-01-29T12:52:39.383Z,6.00
2023-01-29T12:55:26.741Z,6.00
2023-01-29T12:58:01.830Z,6.00
2023-01-29T13:00:29.901Z,6.00
2023-01-29T13:03:17.244Z,6.10
2023-01-29T13:05:51.724Z,6.00
2023-01-29T13:08:29.185Z,6.10
2023-01-29T13:10:58.433Z,6.20
2023-01-29T13:13:35.172Z,6.30
2023-01-29T13:16:05.433Z,6.30
2023-01-29T13:18:40.883Z,6.30
2023-01-29T13:21:16.076Z,6.40
2023-01-29T13:23:56.602Z,6.40
2023-01-29T13:26:24.134Z,6.40
2023-01-29T13:28:52.273Z,6.50
2023-01-29T13:31:40.701Z,6.50
2023-01-29T13:34:31.662Z,6.50
2023-01-29T13:37:01.488Z,6.40
2023-01-29T13:39:39.633Z,6.60
2023-01-29T13:42:17.615Z,6.60
2023-01-29T13:44:52.891Z,6.70
2023-01-29T13:47:25.513Z,6.70
2023-01-29T13:50:21.893Z,6.60
2023-01-29T13:52:55.984Z,6.60
2023-01-29T13:55:31.128Z,6.70
2023-01-29T13:58:18.483Z,6.70
2023-01-29T14:00:45.098Z,6.60
2023-01-29T14:03:11.725Z,6.50
2023-01-29T14:05:39.987Z,6.50
2023-01-29T14:08:09.391Z,6.60
2023-01-29T14:10:37.652Z,6.60
2023-01-29T14:13:04.298Z,6.60
2023-01-29T14:15:32.379Z,6.60
2023-01-29T14:18:12.548Z,6.60
2023-01-29T14:20:46.112Z,6.60
2023-01-29T14:23:36.004Z,6.60
2023-01-29T14:26:05.445Z,6.60
2023-01-29T14:28:34.578Z,6.60
2023-01-29T14:31:01.671Z,6.50
2023-01-29T14:33:42.383Z,6.70
2023-01-29T14:36:14.474Z,6.60
2023-01-29T14:38:47.777Z,6.60
2023-01-29T14:41:30.817Z,6.60
2023-01-29T14:44:34.891Z,6.60
2023-01-29T14:47:01.620Z,6.60
2023-01-29T14:49:58.437Z,6.60
2023-01-29T14:52:39.430Z,6.60
2023-01-29T14:55:15.610Z,6.60
2023-01-29T14:57:43.014Z,6.60
2023-01-29T15:00:24.635Z,6.70
2023-01-29T15:03:01.403Z,6.80
2023-01-29T15:05:35.836Z,6.60
2023-01-29T15:08:49.631Z,6.70
2023-01-29T15:11:35.402Z,6.70
2023-01-29T15:14:24.059Z,6.60
2023-01-29T15:17:23.226Z,6.50
2023-01-29T15:19:49.946Z,6.50
2023-01-29T15:22:21.696Z,6.60
2023-01-29T15:25:07.355Z,6.50
2023-01-29T15:27:34.314Z,6.50
2023-01-29T15:30:04.137Z,6.70
2023-01-29T15:32:37.242Z,6.70
2023-01-29T15:35:49.923Z,6.70
2023-01-29T15:38:22.242Z,6.60
2023-01-29T15:40:57.280Z,6.50
2023-01-29T15:43:30.445Z,6.60
2023-01-29T15:46:04.076Z,6.50
2023-01-29T15:48:37.530Z,6.40
2023-01-29T15:51:07.881Z,6.40
2023-01-29T15:53:44.248Z,6.40
2023-01-29T15:56:12.707Z,6.40
2023-01-29T15:58:40.118Z,6.30
2023-01-29T16:01:07.074Z,6.40
2023-01-29T16:03:34.770Z,6.40
2023-01-29T16:06:02.172Z,6.30
2023-01-29T16:08:29.241Z,6.30
2023-01-29T16:10:59.171Z,6.30
2023-01-29T16:13:29.208Z,6.30
2023-01-29T16:16:04.486Z,6.20
2023-01-29T16:18:38.300Z,6.20
2023-01-29T16:21:14.132Z,6.20
2023-01-29T16:23:45.430Z,6.20
2023-01-29T16:26:17.319Z,6.20
2023-01-29T16:28:44.389Z,6.20
2023-01-29T16:31:13.962Z,6.20
2023-01-29T16:33:43.290Z,6.20
2023-01-29T16:36:22.374Z,6.10
2023-01-29T16:38:55.504Z,6.20
2023-01-29T16:41:22.132Z,6.20
2023-01-29T16:43:49.844Z,6.20
2023-01-29T16:46:20.257Z,6.20
2023-01-29T16:48:47.772Z,6.20
2023-01-29T16:51:24.371Z,6.20
2023-01-29T16:54:02.461Z,6.20
2023-01-29T16:56:32.007Z,6.10
2023-01-29T16:58:59.449Z,6.10
2023-01-29T17:01:28.544Z,6.00
2023-01-29T17:04:07.775Z,6.00
2023-01-29T17:06:35.507Z,6.10
2023-01-29T17:09:03.641Z,6.00
2023-01-29T17:11:40.161Z,5.80
2023-01-29T17:14:08.852Z,5.80
2023-01-29T17:16:48.721Z,5.90
2023-01-29T17:19:20.697Z,5.80
2023-01-29T17:21:47.467Z,5.80
2023-01-29T17:24:14.176Z,5.90
2023-01-29T17:26:41.124Z,5.90
2023-01-29T17:29:13.825Z,5.90
2023-01-29T17:31:40.575Z,5.90
2023-01-29T17:34:14.877Z,5.90
2023-01-29T17:36:42.829Z,6.00
2023-01-29T17:39:20.721Z,5.90
2023-01-29T17:41:58.698Z,5.90
2023-01-29T17:44:28.054Z,5.90
2023-01-29T17:46:54.701Z,5.90
2023-01-29T17:49:26.099Z,5.90
2023-01-29T17:51:54.338Z,6.00
2023-01-29T17:54:22.225Z,6.00
2023-01-29T17:56:50.297Z,5.90
2023-01-29T17:59:27.672Z,6.00
2023-01-29T18:01:54.446Z,5.80
2023-01-29T18:04:21.566Z,5.90
2023-01-29T18:06:50.161Z,5.90
2023-01-29T18:09:20.275Z,6.00
2023-01-29T18:11:48.188Z,6.00
2023-01-29T18:14:15.371Z,5.90
2023-01-29T18:16:43.661Z,6.00
2023-01-29T18:19:31.001Z,6.00
2023-01-29T18:21:57.866Z,6.00
2023-01-29T18:24:26.483Z,6.00
2023-01-29T18:26:53.216Z,5.90
2023-01-29T18:29:19.933Z,6.00
2023-01-29T18:31:49.166Z,6.00
2023-01-29T18:34:15.948Z,6.00
2023-01-29T18:36:46.888Z,6.10
2023-01-29T18:39:16.501Z,6.10
2023-01-29T18:41:43.159Z,6.30
2023-01-29T18:44:10.748Z,6.30
2023-01-29T18:46:37.389Z,6.30
2023-01-29T18:49:05.070Z,6.20
2023-01-29T18:51:31.782Z,6.20
2023-01-29T18:53:58.439Z,6.20
2023-01-29T18:56:25.178Z,6.30
2023-01-29T18:58:55.939Z,6.30
2023-01-29T19:01:23.522Z,6.30
2023-01-29T19:03:50.293Z,6.30
2023-01-29T19:06:16.917Z,6.30
2023-01-29T19:08:43.973Z,6.20
2023-01-29T19:11:12.392Z,6.20
2023-01-29T19:13:40.376Z,6.20
2023-01-29T19:16:12.489Z,6.30
2023-01-29T19:18:39.515Z,6.20
2023-01-29T19:21:08.836Z,6.20
2023-01-29T19:23:35.498Z,6.20
2023-01-29T19:26:02.218Z,6.20
2023-01-29T19:28:28.891Z,6.20
2023-01-29T19:30:58.018Z,6.30
2023-01-29T19:33:25.497Z,6.30
2023-01-29T19:35:52.201Z,6.30
2023-01-29T19:38:21.201Z,6.20
2023-01-29T19:40:48.566Z,6.20
2023-01-29T19:43:17.476Z,6.20
2023-01-29T19:45:49.624Z,6.10
2023-01-29T19:48:21.431Z,6.10
2023-01-29T19:51:12.035Z,6.20
2023-01-29T19:53:40.783Z,6.20
2023-01-29T19:56:09.649Z,6.30
2023-01-29T19:58:36.950Z,6.30
2023-01-29T20:01:06.708Z,6.30
2023-01-29T20:03:34.078Z,6.20
2023-01-29T20:06:05.843Z,6.30
2023-01-29T20:08:33.193Z,6.30
2023-01-29T20:10:59.834Z,6.30
2023-01-29T20:13:26.728Z,6.30
2023-01-29T20:15:54.061Z,6.30
2023-01-29T20:18:20.876Z,6.30
2023-01-29T20:20:50.280Z,6.30
2023-01-29T20:23:31.767Z,6.30
2023-01-29T20:26:03.726Z,6.40
2023-01-29T20:28:30.378Z,6.40
2023-01-29T20:30:58.165Z,6.40
2023-01-29T20:33:25.762Z,6.40
2023-01-29T20:35:57.659Z,6.40
2023-01-29T20:38:30.150Z,6.30
2023-01-29T20:41:17.643Z,6.20
2023-01-29T20:43:45.157Z,6.30
2023-01-29T20:46:12.059Z,6.30
2023-01-29T20:48:39.202Z,6.40
2023-01-29T20:51:07.903Z,6.30
2023-01-29T20:53:34.903Z,6.40
2023-01-29T20:56:04.193Z,6.40
2023-01-29T20:58:31.043Z,6.40
2023-01-29T21:00:57.928Z,6.30
2023-01-29T21:03:24.620Z,6.30
2023-01-29T21:05:52.173Z,6.30
2023-01-29T21:08:18.915Z,6.30
2023-01-29T21:10:45.767Z,6.30
2023-01-29T21:13:12.688Z,6.40
2023-01-29T21:15:39.325Z,6.30
2023-01-29T21:18:06.635Z,6.40
2023-01-29T21:20:33.277Z,6.40
2023-01-29T21:22:59.921Z,6.40
2023-01-29T21:25:26.545Z,6.40
2023-01-29T21:27:53.206Z,6.40
2023-01-29T21:30:20.285Z,6.40
2023-01-29T21:32:47.201Z,6.50
2023-01-29T21:35:14.844Z,6.60
2023-01-29T21:37:41.866Z,6.50
2023-01-29T21:40:09.352Z,6.50
2023-01-29T21:42:54.694Z,6.60
2023-01-29T21:45:21.321Z,6.70
2023-01-29T21:47:47.933Z,6.70
2023-01-29T21:50:14.838Z,6.70
2023-01-29T21:52:41.668Z,6.80
2023-01-29T21:55:08.685Z,6.80
2023-01-29T21:57:35.362Z,6.80
2023-01-29T22:00:02.035Z,6.70
2023-01-29T22:02:30.855Z,6.80
2023-01-29T22:05:16.478Z,6.80
2023-01-29T22:07:45.157Z,6.80
2023-01-29T22:10:12.376Z,6.90
2023-01-29T22:12:39.891Z,6.90
2023-01-29T22:15:08.468Z,6.90
2023-01-29T22:17:35.375Z,6.90
2023-01-29T22:20:02.211Z,6.90
2023-01-29T22:22:28.870Z,6.90
2023-01-29T22:24:57.558Z,6.90
2023-01-29T22:27:24.530Z,7.00
2023-01-29T22:29:51.240Z,6.90
2023-01-29T22:32:17.946Z,6.90
2023-01-29T22:34:44.596Z,7.00
2023-01-29T22:37:11.229Z,7.10
2023-01-29T22:39:37.841Z,7.10
2023-01-29T22:42:04.563Z,7.10
2023-01-29T22:44:31.169Z,7.10
2023-01-29T22:46:57.769Z,7.00
2023-01-29T22:49:25.183Z,7.10
2023-01-29T22:52:09.885Z,7.10
2023-01-29T22:54:41.051Z,7.10
2023-01-29T22:57:10.338Z,7.20
2023-01-29T22:59:37.322Z,7.20
2023-01-29T23:02:04.380Z,7.20
2023-01-29T23:04:31.127Z,7.30
2023-01-29T23:06:58.349Z,7.30
2023-01-29T23:09:25.187Z,7.30
2023-01-29T23:11:51.835Z,7.30
2023-01-29T23:14:18.569Z,7.30
2023-01-29T23:16:45.278Z,7.30
2023-01-29T23:19:12.249Z,7.30
2023-01-29T23:21:39.795Z,7.30
2023-01-29T23:24:07.843Z,7.40
2023-01-29T23:26:53.182Z,7.40
2023-01-29T23:29:20.360Z,7.50
2023-01-29T23:31:47.139Z,7.50
2023-01-29T23:34:14.235Z,7.50
2023-01-29T23:36:41.096Z,7.60
2023-01-29T23:39:07.844Z,7.60
2023-01-29T23:41:34.582Z,7.60
2023-01-29T23:44:01.197Z,7.60
2023-01-29T23:46:27.837Z,7.60
2023-01-29T23:48:54.505Z,7.60
2023-01-29T23:51:21.159Z,7.60
2023-01-29T23:53:47.804Z,7.70
2023-01-29T23:56:14.385Z,7.70
2023-01-29T23:58:41.050Z,7.70
